Login to view Products
 
Monday, December 06, 2021 (12:00 UTC) 12
Sharjah International Airport
ICAO: OMSJ
IATA: SHJ
  • METAR OMSJ 061200Z 29011KT CAVOK 26/13 Q1016 NOSIG=
  • TAF OMSJ 061100Z 0612/0718 30010KT 8000 FEW040 BECMG 0616/0618 18005KT PROB30 0622/0705 4000 HZ BECMG 0708/0710 32010KT BECMG 0715/0717 08005KT=

2